createdAt,value
2022-09-06T00:01:23.880Z,25.00
2022-09-06T00:03:56.439Z,25.00
2022-09-06T00:06:29.598Z,25.00
2022-09-06T00:09:20.637Z,24.90
2022-09-06T00:11:56.304Z,24.90
2022-09-06T00:14:33.690Z,24.90
2022-09-06T00:17:08.508Z,24.90
2022-09-06T00:19:39.819Z,24.90
2022-09-06T00:22:11.668Z,24.90
2022-09-06T00:24:43.490Z,24.90
2022-09-06T00:27:18.061Z,24.90
2022-09-06T00:29:49.049Z,24.90
2022-09-06T00:32:26.901Z,24.90
2022-09-06T00:35:06.855Z,24.90
2022-09-06T00:37:41.627Z,24.90
2022-09-06T00:40:15.429Z,24.90
2022-09-06T00:42:51.904Z,24.80
2022-09-06T00:45:28.574Z,24.90
2022-09-06T00:48:04.273Z,24.90
2022-09-06T00:50:40.894Z,24.80
2022-09-06T00:53:16.246Z,24.80
2022-09-06T00:55:57.619Z,24.80
2022-09-06T00:58:29.331Z,24.90
2022-09-06T01:01:08.840Z,24.80
2022-09-06T01:03:43.243Z,24.90
2022-09-06T01:06:31.769Z,24.80
2022-09-06T01:09:10.937Z,24.90
2022-09-06T01:11:56.444Z,24.80
2022-09-06T01:14:34.398Z,24.80
2022-09-06T01:17:21.464Z,24.80
2022-09-06T01:20:19.844Z,24.80
2022-09-06T01:23:20.891Z,24.80
2022-09-06T01:26:00.310Z,24.80
2022-09-06T01:28:42.353Z,24.80
2022-09-06T01:31:34.201Z,24.80
2022-09-06T01:34:21.864Z,24.80
2022-09-06T01:37:10.450Z,24.80
2022-09-06T01:39:44.672Z,24.80
2022-09-06T01:42:20.535Z,24.70
2022-09-06T01:44:59.878Z,24.80
2022-09-06T01:47:45.619Z,24.70
2022-09-06T01:50:59.773Z,24.80
2022-09-06T01:53:40.987Z,24.80
2022-09-06T01:56:14.813Z,24.70
2022-09-06T01:58:55.111Z,24.70
2022-09-06T02:01:38.544Z,24.70
2022-09-06T02:04:25.344Z,24.70
2022-09-06T02:06:55.222Z,24.70
2022-09-06T02:09:36.092Z,24.70
2022-09-06T02:12:07.695Z,24.70
2022-09-06T02:14:43.225Z,24.70
2022-09-06T02:17:21.354Z,24.70
2022-09-06T02:19:56.485Z,24.70
2022-09-06T02:22:31.938Z,24.70
2022-09-06T02:25:01.127Z,24.70
2022-09-06T02:27:53.787Z,24.70
2022-09-06T02:30:22.779Z,24.70
2022-09-06T02:32:59.635Z,24.70
2022-09-06T02:35:34.635Z,24.70
2022-09-06T02:38:06.231Z,24.70
2022-09-06T02:40:43.988Z,24.70
2022-09-06T02:43:16.054Z,24.70
2022-09-06T02:45:50.148Z,24.60
2022-09-06T02:48:26.748Z,24.60
2022-09-06T02:51:00.445Z,24.60
2022-09-06T02:53:34.149Z,24.70
2022-09-06T02:56:15.738Z,24.70
2022-09-06T02:58:53.077Z,24.60
2022-09-06T03:01:34.653Z,24.60
2022-09-06T03:04:24.322Z,24.60
2022-09-06T03:07:09.691Z,24.60
2022-09-06T03:09:41.844Z,24.60
2022-09-06T03:12:19.306Z,24.60
2022-09-06T03:14:54.720Z,24.60
2022-09-06T03:17:34.242Z,24.60
2022-09-06T03:20:09.713Z,24.60
2022-09-06T03:22:49.473Z,24.60
2022-09-06T03:25:33.197Z,24.60
2022-09-06T03:28:27.133Z,24.60
2022-09-06T03:31:10.153Z,24.60
2022-09-06T03:33:49.192Z,24.60
2022-09-06T03:36:32.561Z,24.60
2022-09-06T03:39:08.529Z,24.60
2022-09-06T03:41:44.486Z,24.60
2022-09-06T03:44:38.264Z,24.60
2022-09-06T03:47:10.745Z,24.60
2022-09-06T03:49:41.102Z,24.60
2022-09-06T03:52:16.555Z,24.50
2022-09-06T03:55:12.025Z,24.50
2022-09-06T03:58:06.503Z,24.60
2022-09-06T04:00:50.094Z,24.50
2022-09-06T04:03:23.401Z,24.50
2022-09-06T04:05:52.480Z,24.60
2022-09-06T04:08:25.821Z,24.50
2022-09-06T04:11:03.066Z,24.50
2022-09-06T04:13:39.169Z,24.50
2022-09-06T04:16:08.736Z,24.50
2022-09-06T04:19:02.370Z,24.50
2022-09-06T04:21:47.062Z,24.50
2022-09-06T04:24:24.600Z,24.50
2022-09-06T04:27:01.227Z,24.50
2022-09-06T04:29:39.330Z,24.50
2022-09-06T04:32:18.291Z,24.50
2022-09-06T04:34:55.829Z,24.50
2022-09-06T04:37:32.554Z,24.50
2022-09-06T04:40:14.584Z,24.50
2022-09-06T04:43:01.546Z,24.50
2022-09-06T04:45:37.198Z,24.50
2022-09-06T04:48:21.472Z,24.50
2022-09-06T04:50:57.076Z,24.50
2022-09-06T04:53:29.674Z,24.50
2022-09-06T04:56:20.006Z,24.50
2022-09-06T04:59:13.640Z,24.50
2022-09-06T05:01:52.265Z,24.50
2022-09-06T05:04:28.651Z,24.50
2022-09-06T05:07:09.498Z,24.50
2022-09-06T05:09:54.939Z,24.50
2022-09-06T05:12:44.417Z,24.50
2022-09-06T05:15:33.696Z,24.50
2022-09-06T05:18:26.567Z,24.50
2022-09-06T05:21:22.889Z,24.50
2022-09-06T05:23:58.909Z,24.50
2022-09-06T05:26:29.089Z,24.50
2022-09-06T05:29:12.911Z,24.50
2022-09-06T05:31:58.525Z,24.50
2022-09-06T05:34:41.876Z,24.50
2022-09-06T05:37:31.350Z,24.50
2022-09-06T05:40:15.131Z,24.50
2022-09-06T05:43:08.199Z,24.50
2022-09-06T05:45:53.705Z,24.50
2022-09-06T05:48:32.214Z,24.50
2022-09-06T05:51:10.972Z,24.50
2022-09-06T05:53:44.845Z,24.50
2022-09-06T05:56:18.271Z,24.40
2022-09-06T05:58:53.225Z,24.40
2022-09-06T06:01:44.899Z,24.40
2022-09-06T06:04:26.118Z,24.50
2022-09-06T06:07:04.851Z,24.50
2022-09-06T06:09:40.096Z,24.50
2022-09-06T06:12:19.176Z,24.60
2022-09-06T06:15:02.043Z,24.60
2022-09-06T06:17:37.539Z,24.70
2022-09-06T06:20:11.194Z,24.70
2022-09-06T06:23:00.104Z,24.70
2022-09-06T06:25:33.254Z,24.70
2022-09-06T06:28:15.472Z,24.80
2022-09-06T06:30:54.682Z,24.70
2022-09-06T06:33:28.122Z,24.70
2022-09-06T06:36:13.580Z,24.70
2022-09-06T06:38:53.030Z,24.70
2022-09-06T06:41:29.755Z,24.70
2022-09-06T06:44:08.804Z,24.70
2022-09-06T06:46:53.720Z,24.70
2022-09-06T06:49:32.162Z,24.60
2022-09-06T06:52:14.290Z,24.70
2022-09-06T06:54:53.265Z,24.60
2022-09-06T06:57:36.645Z,24.60
2022-09-06T07:00:28.112Z,24.60
2022-09-06T07:03:06.788Z,24.60
2022-09-06T07:08:53.639Z,24.60
2022-09-06T07:11:27.393Z,24.60
2022-09-06T07:14:10.963Z,24.60
2022-09-06T07:16:42.723Z,24.60
2022-09-06T07:22:30.269Z,24.60
2022-09-06T07:25:13.362Z,24.50
2022-09-06T07:27:50.790Z,24.50
2022-09-06T07:30:44.417Z,24.60
2022-09-06T07:33:19.828Z,24.60
2022-09-06T07:36:02.618Z,24.60
2022-09-06T07:38:38.221Z,24.60
2022-09-06T07:41:29.180Z,24.60
2022-09-06T07:44:02.728Z,24.60
2022-09-06T07:46:37.652Z,24.60
2022-09-06T07:49:12.439Z,24.60
2022-09-06T07:51:50.342Z,24.60
2022-09-06T07:54:31.045Z,24.60
2022-09-06T07:57:16.387Z,24.60
2022-09-06T07:59:47.889Z,24.60
2022-09-06T08:02:40.798Z,24.50
2022-09-06T08:11:47.925Z,24.50
2022-09-06T08:14:42.828Z,24.50
2022-09-06T08:17:27.013Z,24.60
2022-09-06T08:20:01.492Z,24.70
2022-09-06T08:22:45.704Z,24.70
2022-09-06T08:25:23.246Z,24.80
2022-09-06T08:27:55.218Z,24.80
2022-09-06T08:30:34.321Z,24.90
2022-09-06T08:33:20.333Z,24.90
2022-09-06T08:36:10.455Z,24.90
2022-09-06T08:38:46.067Z,24.90
2022-09-06T08:41:24.893Z,24.90
2022-09-06T08:44:58.860Z,24.90
2022-09-06T08:47:29.490Z,24.90
2022-09-06T08:50:13.304Z,24.90
2022-09-06T08:53:17.533Z,24.90
2022-09-06T08:55:53.868Z,24.90
2022-09-06T08:58:47.610Z,24.90
2022-09-06T09:01:35.608Z,24.90
2022-09-06T09:04:07.033Z,25.00
2022-09-06T09:06:48.774Z,25.00
2022-09-06T09:12:10.531Z,25.00
2022-09-06T09:15:00.621Z,25.00
2022-09-06T09:17:48.494Z,25.10
2022-09-06T09:20:25.277Z,25.10
2022-09-06T09:22:58.829Z,25.10
2022-09-06T09:25:34.068Z,25.10
2022-09-06T09:28:29.464Z,25.20
2022-09-06T09:31:25.050Z,25.20
2022-09-06T09:34:04.387Z,25.20
2022-09-06T09:40:05.452Z,25.20
2022-09-06T09:42:49.571Z,25.20
2022-09-06T09:45:35.899Z,25.20
2022-09-06T09:48:43.031Z,25.30
2022-09-06T09:51:34.597Z,25.30
2022-09-06T09:54:16.593Z,25.40
2022-09-06T09:57:08.988Z,25.40
2022-09-06T09:59:56.312Z,25.40
2022-09-06T10:02:36.026Z,25.40
2022-09-06T10:05:11.369Z,25.40
2022-09-06T10:07:47.376Z,25.40
2022-09-06T10:10:41.873Z,25.40
2022-09-06T10:13:30.563Z,25.40
2022-09-06T10:16:24.477Z,25.40
2022-09-06T10:19:17.855Z,25.40
2022-09-06T10:21:50.023Z,25.40
2022-09-06T10:24:49.791Z,25.40
2022-09-06T10:27:33.244Z,25.40
2022-09-06T10:30:17.660Z,25.40
2022-09-06T10:33:08.801Z,25.50
2022-09-06T10:41:43.481Z,25.40
2022-09-06T10:44:34.196Z,25.50
2022-09-06T10:47:31.683Z,25.50
2022-09-06T10:50:19.246Z,25.50
2022-09-06T10:53:11.226Z,25.50
2022-09-06T10:56:11.634Z,25.50
2022-09-06T11:01:52.399Z,25.50
2022-09-06T11:10:51.855Z,25.50
2022-09-06T11:13:30.479Z,25.50
2022-09-06T11:16:13.671Z,25.60
2022-09-06T11:18:44.662Z,25.60
2022-09-06T11:21:27.890Z,25.50
2022-09-06T11:24:18.905Z,25.50
2022-09-06T11:27:14.949Z,25.60
2022-09-06T11:30:01.074Z,25.60
2022-09-06T11:32:55.332Z,25.60
2022-09-06T11:35:34.674Z,25.60
2022-09-06T11:38:15.492Z,25.60
2022-09-06T11:40:59.349Z,25.60
2022-09-06T11:47:38.856Z,25.60
2022-09-06T11:50:36.505Z,25.60
2022-09-06T11:53:28.279Z,25.60
2022-09-06T11:56:29.533Z,25.60
2022-09-06T11:59:13.066Z,25.60
2022-09-06T12:01:47.128Z,25.60
2022-09-06T12:04:31.169Z,25.60
2022-09-06T12:07:21.106Z,25.70
2022-09-06T12:10:26.376Z,25.70
2022-09-06T12:13:01.795Z,25.70
2022-09-06T12:15:36.763Z,25.70
2022-09-06T12:18:12.760Z,25.70
2022-09-06T12:21:46.371Z,25.70
2022-09-06T12:25:01.397Z,25.70
2022-09-06T12:27:36.479Z,25.70
2022-09-06T12:30:11.755Z,25.80
2022-09-06T12:32:49.291Z,25.80
2022-09-06T12:38:40.169Z,25.80
2022-09-06T12:41:26.945Z,25.80
2022-09-06T12:44:01.477Z,25.80
2022-09-06T12:46:40.266Z,25.80
2022-09-06T12:49:25.173Z,25.80
2022-09-06T12:52:20.458Z,25.80
2022-09-06T12:55:05.527Z,25.90
2022-09-06T12:57:43.964Z,25.90
2022-09-06T13:03:37.760Z,25.80
2022-09-06T13:06:27.276Z,25.90
2022-09-06T13:09:05.289Z,25.90
2022-09-06T13:11:37.848Z,25.80
2022-09-06T13:14:16.768Z,25.90
2022-09-06T13:17:00.718Z,25.90
2022-09-06T13:19:42.871Z,25.90
2022-09-06T13:22:26.562Z,25.90
2022-09-06T13:25:12.372Z,25.90
2022-09-06T13:28:05.667Z,25.90
2022-09-06T13:30:38.872Z,25.90
2022-09-06T13:33:36.010Z,25.90
2022-09-06T13:36:37.635Z,25.90
2022-09-06T13:39:13.744Z,25.90
2022-09-06T13:42:06.343Z,25.90
2022-09-06T13:45:22.419Z,25.90
2022-09-06T13:48:29.732Z,25.90
2022-09-06T13:51:20.835Z,25.80
2022-09-06T13:54:17.973Z,25.80
2022-09-06T13:57:04.198Z,25.80
2022-09-06T13:59:41.149Z,25.80
2022-09-06T14:02:37.230Z,25.80
2022-09-06T14:05:22.160Z,25.80
2022-09-06T14:08:04.628Z,25.80
2022-09-06T14:10:54.452Z,25.80
2022-09-06T14:13:36.349Z,25.80
2022-09-06T14:16:20.652Z,25.80
2022-09-06T14:18:50.413Z,25.80
2022-09-06T14:21:31.965Z,25.80
2022-09-06T14:27:19.297Z,25.80
2022-09-06T14:29:50.820Z,25.80
2022-09-06T14:32:35.359Z,25.80
2022-09-06T14:35:08.944Z,25.70
2022-09-06T14:37:47.746Z,25.80
2022-09-06T14:40:29.957Z,25.70
2022-09-06T14:43:09.146Z,25.70
2022-09-06T14:45:48.643Z,25.70
2022-09-06T14:48:38.083Z,25.70
2022-09-06T14:51:15.230Z,25.70
2022-09-06T14:53:55.683Z,25.70
2022-09-06T14:56:40.404Z,25.70
2022-09-06T14:59:23.521Z,25.70
2022-09-06T15:02:16.785Z,25.70
2022-09-06T15:04:56.791Z,25.70
2022-09-06T15:07:30.339Z,25.60
2022-09-06T15:10:06.350Z,25.60
2022-09-06T15:12:42.874Z,25.70
2022-09-06T15:15:23.151Z,25.60
2022-09-06T15:18:09.219Z,25.60
2022-09-06T15:20:56.293Z,25.60
2022-09-06T15:23:30.560Z,25.60
2022-09-06T15:26:15.202Z,25.60
2022-09-06T15:29:07.818Z,25.60
2022-09-06T15:31:45.189Z,25.60
2022-09-06T15:34:32.382Z,25.60
2022-09-06T15:37:13.200Z,25.60
2022-09-06T15:39:51.550Z,25.60
2022-09-06T15:42:36.278Z,25.60
2022-09-06T15:45:23.548Z,25.60
2022-09-06T15:48:06.522Z,25.60
2022-09-06T15:50:52.043Z,25.60
2022-09-06T15:53:26.125Z,25.50
2022-09-06T15:56:10.162Z,25.50
2022-09-06T15:58:45.371Z,25.50
2022-09-06T16:01:23.015Z,25.50
2022-09-06T16:03:54.966Z,25.50
2022-09-06T16:06:38.548Z,25.50
2022-09-06T16:09:17.986Z,25.50
2022-09-06T16:11:52.675Z,25.50
2022-09-06T16:14:38.759Z,25.50
2022-09-06T16:17:13.743Z,25.50
2022-09-06T16:19:56.778Z,25.50
2022-09-06T16:22:27.456Z,25.50
2022-09-06T16:25:04.429Z,25.50
2022-09-06T16:27:46.632Z,25.50
2022-09-06T16:30:28.368Z,25.50
2022-09-06T16:33:07.555Z,25.50
2022-09-06T16:35:52.534Z,25.50
2022-09-06T16:38:32.372Z,25.50
2022-09-06T16:41:16.113Z,25.50
2022-09-06T16:43:49.860Z,25.50
2022-09-06T16:46:46.040Z,25.40
2022-09-06T16:49:29.117Z,25.40
2022-09-06T16:52:02.628Z,25.40
2022-09-06T16:54:34.801Z,25.40
2022-09-06T16:57:04.861Z,25.40
2022-09-06T17:00:00.793Z,25.40
2022-09-06T17:02:36.475Z,25.40
2022-09-06T17:05:30.217Z,25.40
2022-09-06T17:08:06.506Z,25.40
2022-09-06T17:10:38.954Z,25.40
2022-09-06T17:13:23.200Z,25.40
2022-09-06T17:16:45.166Z,25.40
2022-09-06T17:19:23.245Z,25.40
2022-09-06T17:22:01.633Z,25.30
2022-09-06T17:24:41.411Z,25.30
2022-09-06T17:27:20.234Z,25.30
2022-09-06T17:29:56.236Z,25.30
2022-09-06T17:32:29.915Z,25.30
2022-09-06T17:35:07.912Z,25.30
2022-09-06T17:37:45.908Z,25.30
2022-09-06T17:40:20.073Z,25.40
2022-09-06T17:42:59.570Z,25.40
2022-09-06T17:45:42.509Z,25.40
2022-09-06T17:48:25.925Z,25.50
2022-09-06T17:51:21.682Z,25.50
2022-09-06T17:53:59.954Z,25.50
2022-09-06T17:56:42.358Z,25.50
2022-09-06T17:59:23.123Z,25.50
2022-09-06T18:02:08.772Z,25.50
2022-09-06T18:04:46.406Z,25.50
2022-09-06T18:07:32.094Z,25.50
2022-09-06T18:10:10.042Z,25.60
2022-09-06T18:13:01.161Z,25.50
2022-09-06T18:15:50.227Z,25.50
2022-09-06T18:18:41.959Z,25.50
2022-09-06T18:21:13.612Z,25.50
2022-09-06T18:23:55.356Z,25.50
2022-09-06T18:26:34.112Z,25.50
2022-09-06T18:29:14.184Z,25.50
2022-09-06T18:32:00.612Z,25.50
2022-09-06T18:34:40.685Z,25.50
2022-09-06T18:37:16.800Z,25.50
2022-09-06T18:39:51.762Z,25.50
2022-09-06T18:42:31.410Z,25.40
2022-09-06T18:45:16.298Z,25.50
2022-09-06T18:48:02.747Z,25.50
2022-09-06T18:50:59.959Z,25.50
2022-09-06T18:53:35.926Z,25.50
2022-09-06T18:56:16.959Z,25.50
2022-09-06T18:59:14.293Z,25.50
2022-09-06T19:01:57.493Z,25.40
2022-09-06T19:04:41.875Z,25.40
2022-09-06T19:07:21.580Z,25.50
2022-09-06T19:10:10.689Z,25.50
2022-09-06T19:12:55.289Z,25.40
2022-09-06T19:15:36.895Z,25.50
2022-09-06T19:18:23.050Z,25.40
2022-09-06T19:21:10.476Z,25.40
2022-09-06T19:23:53.972Z,25.40
2022-09-06T19:26:34.449Z,25.40
2022-09-06T19:29:23.157Z,25.40
2022-09-06T19:32:03.235Z,25.40
2022-09-06T19:34:45.081Z,25.40
2022-09-06T19:37:33.550Z,25.40
2022-09-06T19:40:13.747Z,25.40
2022-09-06T19:42:55.562Z,25.40
2022-09-06T19:45:36.929Z,25.40
2022-09-06T19:48:14.631Z,25.30
2022-09-06T19:50:44.538Z,25.40
2022-09-06T19:53:23.149Z,25.40
2022-09-06T19:55:58.552Z,25.40
2022-09-06T19:58:35.025Z,25.30
2022-09-06T20:01:11.646Z,25.30
2022-09-06T20:04:00.424Z,25.30
2022-09-06T20:06:30.791Z,25.30
2022-09-06T20:09:14.443Z,25.30
2022-09-06T20:11:43.521Z,25.30
2022-09-06T20:14:15.267Z,25.30
2022-09-06T20:16:54.373Z,25.40
2022-09-06T20:20:14.951Z,25.30
2022-09-06T20:23:06.926Z,25.30
2022-09-06T20:25:52.587Z,25.30
2022-09-06T20:28:29.650Z,25.30
2022-09-06T20:31:08.900Z,25.20
2022-09-06T20:33:49.807Z,25.30
2022-09-06T20:36:26.790Z,25.30
2022-09-06T20:39:10.222Z,25.30
2022-09-06T20:41:49.572Z,25.30
2022-09-06T20:44:28.639Z,25.30
2022-09-06T20:47:09.266Z,25.30
2022-09-06T20:49:44.725Z,25.20
2022-09-06T20:52:15.672Z,25.20
2022-09-06T20:54:54.413Z,25.30
2022-09-06T20:57:34.241Z,25.20
2022-09-06T21:00:14.506Z,25.30
2022-09-06T21:02:57.475Z,25.20
2022-09-06T21:05:32.149Z,25.30
2022-09-06T21:08:03.725Z,25.30
2022-09-06T21:10:43.141Z,25.20
2022-09-06T21:13:22.356Z,25.20
2022-09-06T21:15:57.004Z,25.20
2022-09-06T21:18:36.420Z,25.20
2022-09-06T21:21:14.856Z,25.20
2022-09-06T21:23:47.757Z,25.20
2022-09-06T21:26:24.688Z,25.20
2022-09-06T21:29:00.014Z,25.20
2022-09-06T21:31:36.790Z,25.20
2022-09-06T21:34:20.648Z,25.20
2022-09-06T21:37:00.839Z,25.20
2022-09-06T21:39:33.258Z,25.20
2022-09-06T21:42:07.599Z,25.20
2022-09-06T21:44:40.125Z,25.10
2022-09-06T21:47:17.387Z,25.10
2022-09-06T21:49:49.976Z,25.10
2022-09-06T21:52:24.098Z,25.10
2022-09-06T21:54:53.047Z,25.20
2022-09-06T21:57:32.164Z,25.20
2022-09-06T22:00:05.208Z,25.20
2022-09-06T22:02:38.912Z,25.20
2022-09-06T22:05:22.854Z,25.20
2022-09-06T22:08:02.150Z,25.20
2022-09-06T22:10:34.868Z,25.20
2022-09-06T22:13:10.839Z,25.10
2022-09-06T22:15:43.136Z,25.10
2022-09-06T22:18:14.441Z,25.20
2022-09-06T22:20:45.992Z,25.10
2022-09-06T22:23:26.771Z,25.10
2022-09-06T22:26:03.916Z,25.20
2022-09-06T22:28:46.058Z,25.10
2022-09-06T22:31:21.910Z,25.10
2022-09-06T22:33:59.337Z,25.10
2022-09-06T22:36:36.131Z,25.10
2022-09-06T22:39:12.713Z,25.10
2022-09-06T22:41:47.687Z,25.10
2022-09-06T22:44:26.470Z,25.10
2022-09-06T22:46:58.350Z,25.10
2022-09-06T22:49:42.805Z,25.10
2022-09-06T22:52:27.932Z,25.10
2022-09-06T22:55:13.075Z,25.10
2022-09-06T22:57:46.608Z,25.10
2022-09-06T23:00:19.899Z,25.10
2022-09-06T23:02:51.338Z,25.10
2022-09-06T23:05:23.747Z,25.10
2022-09-06T23:07:58.898Z,25.00
2022-09-06T23:10:38.073Z,25.00
2022-09-06T23:13:16.589Z,25.10
2022-09-06T23:15:52.050Z,25.10
2022-09-06T23:18:23.786Z,25.10
2022-09-06T23:21:02.105Z,25.10
2022-09-06T23:23:33.045Z,25.10
2022-09-06T23:26:09.201Z,25.00
2022-09-06T23:28:41.013Z,25.00
2022-09-06T23:31:10.773Z,25.00
2022-09-06T23:33:40.549Z,25.10
2022-09-06T23:36:12.654Z,25.00
2022-09-06T23:38:47.074Z,25.00
2022-09-06T23:41:22.003Z,25.00
2022-09-06T23:43:57.094Z,25.10
2022-09-06T23:46:36.599Z,25.00
2022-09-06T23:49:07.286Z,25.10
2022-09-06T23:51:39.795Z,25.10
2022-09-06T23:54:16.369Z,25.10
2022-09-06T23:56:55.198Z,25.10
2022-09-06T23:59:29.103Z,25.00
